Map

Track Data

SID SEASON NUMBER BASIN SUBBASIN NAME ISO_TIME NATURE LAT LON WMO_WIND WMO_PRES WMO_AGENCY TRACK_TYPE DIST2LAND LANDFALL IFLAG USA_AGENCY USA_ATCF_ID USA_LAT USA_LON USA_RECORD USA_STATUS USA_WIND USA_PRES USA_SSHS USA_R34_NE USA_R34_SE USA_R34_SW USA_R34_NW USA_R50_NE USA_R50_SE USA_R50_SW USA_R50_NW USA_R64_NE USA_R64_SE USA_R64_SW USA_R64_NW USA_POCI USA_ROCI USA_RMW USA_EYE TOKYO_LAT TOKYO_LON TOKYO_GRADE TOKYO_WIND TOKYO_PRES TOKYO_R50_DIR TOKYO_R50_LONG TOKYO_R50_SHORT TOKYO_R30_DIR TOKYO_R30_LONG TOKYO_R30_SHORT TOKYO_LAND CMA_LAT CMA_LON CMA_CAT CMA_WIND CMA_PRES HKO_LAT HKO_LON HKO_CAT HKO_WIND HKO_PRES NEWDELHI_LAT NEWDELHI_LON NEWDELHI_GRADE NEWDELHI_WIND NEWDELHI_PRES NEWDELHI_CI NEWDELHI_DP NEWDELHI_POCI REUNION_LAT REUNION_LON REUNION_TYPE REUNION_WIND REUNION_PRES REUNION_TNUM REUNION_CI REUNION_RMW REUNION_R34_NE REUNION_R34_SE REUNION_R34_SW REUNION_R34_NW REUNION_R50_NE REUNION_R50_SE REUNION_R50_SW REUNION_R50_NW REUNION_R64_NE REUNION_R64_SE REUNION_R64_SW REUNION_R64_NW BOM_LAT BOM_LON BOM_TYPE BOM_WIND BOM_PRES BOM_TNUM BOM_CI BOM_RMW BOM_R34_NE BOM_R34_SE BOM_R34_SW BOM_R34_NW BOM_R50_NE BOM_R50_SE BOM_R50_SW BOM_R50_NW BOM_R64_NE BOM_R64_SE BOM_R64_SW BOM_R64_NW BOM_ROCI BOM_POCI BOM_EYE BOM_POS_METHOD BOM_PRES_METHOD NADI_LAT NADI_LON NADI_CAT NADI_WIND NADI_PRES WELLINGTON_LAT WELLINGTON_LON WELLINGTON_WIND WELLINGTON_PRES DS824_LAT DS824_LON DS824_STAGE DS824_WIND DS824_PRES TD9636_LAT TD9636_LON TD9636_STAGE TD9636_WIND TD9636_PRES TD9635_LAT TD9635_LON TD9635_WIND TD9635_PRES TD9635_ROCI NEUMANN_LAT NEUMANN_LON NEUMANN_CLASS NEUMANN_WIND NEUMANN_PRES MLC_LAT MLC_LON MLC_CLASS MLC_WIND MLC_PRES USA_GUST BOM_GUST BOM_GUST_PER REUNION_GUST REUNION_GUST_PER USA_SEAHGT USA_SEARAD_NE USA_SEARAD_SE USA_SEARAD_SW USA_SEARAD_NW STORM_SPEED STORM_DIR
1981195N11138 1981 49 WP MM MAURY 1981-07-14 00:00:00 NR 11.2000 137.600 main 1267 1239 __________O___ -1 11.2000 137.600 0 7 309
1981195N11138 1981 49 WP MM MAURY 1981-07-14 03:00:00 NR 11.4097 137.332 main 1239 1222 __________P___ -1 11.4097 137.332 0 7 310
1981195N11138 1981 49 WP MM MAURY 1981-07-14 06:00:00 NR 11.6253 137.081 main 1222 1206 __________P___ -1 11.6253 137.081 0 6 314
1981195N11138 1981 49 WP MM MAURY 1981-07-14 09:00:00 NR 11.8533 136.864 main 1208 1190 __________P___ -1 11.8533 136.864 0 6 322
1981195N11138 1981 49 WP MM MAURY 1981-07-14 12:00:00 NR 12.1000 136.700 main 1193 1184 __________O___ -1 12.1000 136.700 0 6 333
1981195N11138 1981 49 WP MM MAURY 1981-07-14 15:00:00 NR 12.3686 136.598 main 1187 1179 __________P___ -1 12.3686 136.598 0 6 344
1981195N11138 1981 49 WP MM MAURY 1981-07-14 18:00:00 NR 12.6498 136.535 main 1179 1179 __________P___ -1 12.6498 136.535 0 6 348
1981195N11138 1981 49 WP MM MAURY 1981-07-14 21:00:00 NR 12.9311 136.479 main 1183 1177 __________P___ -1 12.9311 136.479 0 6 347
1981195N11138 1981 49 WP MM MAURY 1981-07-15 00:00:00 NR 13.2000 136.400 main 1179 1170 __________O___ -1 13.2000 136.400 0 6 336
1981195N11138 1981 49 WP MM MAURY 1981-07-15 03:00:00 NR 13.4354 136.246 main 1162 1156 __________P___ -1 13.4354 136.246 0 6 324
1981195N11138 1981 49 WP MM MAURY 1981-07-15 06:00:00 NR 13.6576 136.065 main 1159 1141 __________P___ -1 13.6576 136.065 0 6 321
1981195N11138 1981 49 WP MM MAURY 1981-07-15 09:00:00 NR 13.8760 135.877 main 1143 1123 __________P___ -1 13.8760 135.877 0 6 321
1981195N11138 1981 49 WP MM MAURY 1981-07-15 12:00:00 NR 14.1000 135.700 main 1125 1116 __________O___ -1 14.1000 135.700 0 5 329
1981195N11138 1981 49 WP MM MAURY 1981-07-15 15:00:00 NR 14.3019 135.608 main 1118 1112 __________P___ -1 14.3019 135.608 0 5 338
1981195N11138 1981 49 WP MM MAURY 1981-07-15 18:00:00 NR 14.5169 135.523 main 1112 1107 __________P___ -1 14.5169 135.523 0 5 337
1981195N11138 1981 49 WP MM MAURY 1981-07-15 21:00:00 NR 14.7736 135.402 main 1109 1094 __________P___ -1 14.7736 135.402 0 7 332
1981195N11138 1981 49 WP MM MAURY 1981-07-16 00:00:00 NR 15.1000 135.200 main 1097 1080 __________O___ -1 15.1000 135.200 0 9 328
1981195N11138 1981 49 WP MM MAURY 1981-07-16 03:00:00 NR 15.5360 134.898 main 1080 1059 __________P___ -1 15.5360 134.898 0 12 325
1981195N11138 1981 49 WP MM MAURY 1981-07-16 06:00:00 NR 16.0396 134.507 main 1059 1044 __________P___ -1 16.0396 134.507 0 13 321
1981195N11138 1981 49 WP MM MAURY 1981-07-16 09:00:00 NR 16.5733 134.038 main 1039 1020 __________P___ -1 16.5733 134.038 0 14 318
1981195N11138 1981 49 WP MM MAURY 1981-07-16 12:00:00 NR 17.1000 133.500 main 1020 998 __________O___ -1 17.1000 133.500 0 15 313
1981195N11138 1981 49 WP MM MAURY 1981-07-16 15:00:00 NR 17.6181 132.884 main 998 957 __________P___ -1 17.6181 132.884 0 16 309
1981195N11138 1981 49 WP MM MAURY 1981-07-16 18:00:00 NR 18.1138 132.210 main 957 925 __________P___ -1 18.1138 132.210 0 16 306
1981195N11138 1981 49 WP MM MAURY 1981-07-16 21:00:00 NR 18.5525 131.531 main 922 890 __________P___ -1 18.5525 131.531 0 15 302
1981195N11138 1981 49 WP MM MAURY 1981-07-17 00:00:00 NR 18.9000 130.900 main 890 856 O_________O___ jtwc_wp WP081981 18.9000 130.900 20 -1 18.9000 130.900 0 20 12 297
1981195N11138 1981 49 WP MM MAURY 1981-07-17 03:00:00 NR 19.1153 130.377 main 856 825 P_________P___ WP081981 19.1353 130.383 20 -1 19.1053 130.374 0 21 8 285
1981195N11138 1981 49 WP MM MAURY 1981-07-17 06:00:00 TS 19.1106 130.092 1002 tokyo main 825 804 OOO_______P___ jtwc_wp WP081981 19.3000 129.900 20 -1 18.8000 133.000 2 1002 0 0 0 18.4000 128.500 1 23 1000 19.2239 129.907 0 22 5 273
1981195N11138 1981 49 WP MM MAURY 1981-07-17 09:00:00 TS 19.1377 129.850 main 804 784 PPP_______P___ WP081981 19.3573 129.477 22 -1 19.1480 132.303 2 1001 0 0 18.3527 128.870 1 26 1000 19.3056 129.487 0 23 4 283
1981195N11138 1981 49 WP MM MAURY 1981-07-17 12:00:00 TS 19.2071 129.657 1000 tokyo main 784 764 OOO_______O___ jtwc_wp WP081981 19.4000 129.100 25 -1 19.5000 131.600 2 1000 0 0 0 18.4000 129.200 1 29 1000 19.4000 129.100 1 25 4 302
1981195N11138 1981 49 WP MM MAURY 1981-07-17 15:00:00 TS 19.3748 129.451 main 765 737 PPP_______P___ WP081981 19.5199 128.742 27 -1 19.8573 130.892 2 998 0 0 18.6174 129.440 1 29 999 19.5048 128.728 1 27 6 314
1981195N11138 1981 49 WP MM MAURY 1981-07-17 18:00:00 TS 19.5981 129.225 996 tokyo main 737 713 OOOO______P___ jtwc_wp WP081981 19.7000 128.400 30 -1 20.2000 130.200 2 996 0 0 0 19.0000 129.500 1 29 998 19.0000 130.900 TD 25 998 19.6418 128.383 1 30 7 316
1981195N11138 1981 49 WP MM MAURY 1981-07-17 21:00:00 TS 19.8911 128.917 main 713 691 PPPP______P___ WP081981 19.8897 128.079 32 -1 20.4845 129.557 2 994 0 0 19.5049 129.347 1 33 996 19.5458 130.191 TD 27 996 19.8579 128.046 1 32 10 316
1981195N11138 1981 49 WP MM MAURY 1981-07-18 00:00:00 TS 20.2895 128.526 45 992 tokyo main 684 659 OOOO______O___ jtwc_wp WP081981 20.2000 127.700 35 0 20.8000 128.900 3 45 992 0 9 200 200 0 20.1000 129.000 2 38 995 20.1000 129.600 TD 30 995 20.2000 127.700 2 35 12 319
1981195N11138 1981 49 WP MM MAURY 1981-07-18 03:00:00 TS 20.7981 128.066 main 664 642 PPPP______P___ WP081981 20.6755 127.136 40 0 21.2128 128.128 3 45 991 0 9 225 150 20.6926 128.538 2 43 993 20.6771 129.204 TD 35 993 20.7326 127.323 2 38 14 321
1981195N11138 1981 49 WP MM MAURY 1981-07-18 06:00:00 TS 21.3975 127.566 45 990 tokyo main 647 607 OOOO______P___ jtwc_wp WP081981 21.3000 126.600 45 0 21.7000 127.400 3 45 990 0 3 250 100 0 21.3000 128.000 3 48 992 21.3000 128.900 TS 40 992 21.3873 126.931 2 42 15 326
1981195N11138 1981 49 WP MM MAURY 1981-07-18 09:00:00 TS 22.0519 127.148 main 594 538 PPPP______P___ WP081981 22.0198 126.282 47 0 22.2344 126.862 3 45 990 0 3 275 100 21.9223 127.500 3 48 992 21.9848 128.572 TS 42 991 22.0983 126.523 2 46 15 331
1981195N11138 1981 49 WP MM MAURY 1981-07-18 12:00:00 TS 22.7200 126.760 45 990 tokyo main 538 476 OOOO______O___ jtwc_wp WP081981 22.8000 126.100 50 0 22.8000 126.400 3 45 990 0 3 300 100 0 22.5000 127.000 3 48 992 22.7000 128.200 TS 45 990 22.8000 126.100 2 50 15 333
1981195N11138 1981 49 WP MM MAURY 1981-07-18 15:00:00 TS 23.3581 126.421 main 473 420 PPPP______P___ WP081981 23.6017 126.081 52 0 23.3498 125.907 3 47 987 0 3 300 100 22.9420 126.529 3 48 991 23.4122 127.885 TS 47 989 23.4846 125.706 2 51 15 329
1981195N11138 1981 49 WP MM MAURY 1981-07-18 18:00:00 TS 23.9671 125.958 50 985 tokyo main 419 325 OOOO______P___ jtwc_wp WP081981 24.3000 125.900 55 0 23.9000 125.400 4 50 985 0 3 300 100 0 23.4000 126.000 3 48 990 24.1000 127.200 STS 50 988 24.1355 125.291 2 52 17 317
1981195N11138 1981 49 WP MM MAURY 1981-07-18 21:00:00 TS 24.5876 125.169 main 325 231 PPPP______P___ WP081981 24.8210 125.184 55 0 24.5323 124.866 4 50 985 0 3 300 100 24.0798 125.346 3 48 989 24.8111 125.620 STS 52 987 24.6936 124.831 2 53 19 305
1981195N11138 1981 49 WP MM MAURY 1981-07-19 00:00:00 TS 25.0400 124.300 50 985 tokyo main 231 162 OOOO______O___ jtwc_wp WP081981 25.1000 124.300 55 0 25.0000 124.300 4 50 985 0 3 300 100 0 24.7000 124.600 3 48 988 25.3000 124.000 STS 55 986 25.1000 124.300 2 55 15 293
1981195N11138 1981 49 WP MM MAURY 1981-07-19 03:00:00 TS 25.1756 123.612 main 162 103 PPPP______P___ WP081981 25.0942 123.641 55 0 25.0673 123.706 4 50 985 0 3 300 100 25.0251 123.792 3 48 987 25.4241 123.263 STS 55 984 25.2675 123.660 2 51 12 276
1981195N11138 1981 49 WP MM MAURY 1981-07-19 06:00:00 TS 25.1572 122.971 50 985 tokyo main 103 37 OOOO______P___ jtwc_wp WP081981 25.0000 123.000 55 0 25.0000 123.100 4 50 985 0 3 300 100 0 25.2000 123.000 3 48 987 25.3000 122.800 STS 55 982 25.2859 122.955 2 47 12 269
1981195N11138 1981 49 WP MM MAURY 1981-07-19 09:00:00 TS 25.1641 122.274 main 37 0 PPPP______P___ WP081981 25.0776 122.250 47 0 25.0773 122.493 4 47 987 0 3 300 100 25.4097 122.305 3 53 987 25.0201 122.098 STS 55 981 25.2361 122.223 2 43 12 271
1981195N11138 1981 49 WP MM MAURY 1981-07-19 12:00:00 TS 25.1800 121.600 45 990 tokyo main 0 0 OOOO______O___ jtwc_wp WP081981 25.2000 121.500 40 0 25.2000 121.900 3 45 990 0 2 300 100 0 25.5000 121.700 3 58 987 24.8000 121.400 STS 55 981 25.2000 121.500 2 40 12 274
1981195N11138 1981 49 WP MM MAURY 1981-07-19 15:00:00 TS 25.2435 120.988 main 22 22 PPPP______P___ WP081981 25.2920 120.835 37 0 25.3420 121.357 3 45 990 0 2 300 100 25.3271 121.176 3 58 987 24.9325 120.741 STS 52 984 25.3237 120.829 2 37 11 279
1981195N11138 1981 49 WP MM MAURY 1981-07-19 18:00:00 TS 25.3519 120.426 45 990 tokyo main 70 32 OOOO______P___ jtwc_wp WP081981 25.4000 120.200 35 0 25.5000 120.800 3 45 990 0 2 300 100 0 25.2000 120.700 3 58 987 25.2000 120.200 STS 50 988 25.4713 120.172 2 35 10 288
1981195N11138 1981 49 WP MM MAURY 1981-07-19 21:00:00 TS 25.5490 119.937 main 22 0 PPPP______P___ WP081981 25.5407 119.555 32 -1 25.6872 120.181 3 991 0 2 25.4762 120.283 3 58 987 25.4287 119.945 STS 47 989 25.6082 119.529 2 32 10 292
1981195N11138 1981 49 WP MM MAURY 1981-07-20 00:00:00 TS 25.7312 119.381 992 tokyo main 0 0 OOOO______O___ jtwc_wp WP081981 25.7000 118.900 30 -1 25.8000 119.500 2 992 0 0 0 25.8000 119.700 3 58 987 25.6000 119.600 TS 45 991 25.7000 118.900 6 30 12 280
1981195N11138 1981 49 WP MM MAURY 1981-07-20 03:00:00 TS 25.7586 118.620 main 0 0 _PPP______P___ WP081981 -1 25.7448 118.765 2 993 0 0 25.8612 118.710 3 43 990 25.6425 118.835 TS 37 993 25.7279 118.277 6 15 269
1981195N11138 1981 49 WP MM MAURY 1981-07-20 06:00:00 TS 25.6935 117.760 994 tokyo main 0 0 _OOO______P___ -1 25.6000 118.000 2 994 0 0 0 25.8000 117.600 1 29 994 25.6000 117.800 TD 30 996 25.7040 117.670 6 15 264
1981195N11138 1981 49 WP MM MAURY 1981-07-20 09:00:00 TS 25.6026 116.979 main 0 0 _PP_______P___ -1 25.4571 117.250 2 996 0 0 25.7225 116.610 1 26 995 TD 25.6280 117.078 6 14 260
1981195N11138 1981 49 WP MM MAURY 1981-07-20 12:00:00 TS 25.4667 116.267 998 tokyo main 0 0 _OO_______O___ -1 25.3000 116.500 2 998 0 0 0 25.6000 115.800 1 23 997 25.5000 116.500 6 13 257
1981195N11138 1981 49 WP MM MAURY 1981-07-20 15:00:00 TS 25.3094 115.622 main 0 0 _PP_______P___ -1 25.1502 115.705 2 998 0 0 25.4566 115.268 1 23 997 25.3213 115.894 6 11 253
1981195N11138 1981 49 WP MM MAURY 1981-07-20 18:00:00 TS 25.1317 115.070 998 tokyo main 0 0 _OO_______P___ -1 25.0000 115.000 2 998 0 0 0 25.3000 114.900 1 23 997 25.0952 115.309 6 10 250
1981195N11138 1981 49 WP MM MAURY 1981-07-20 21:00:00 TS 24.9736 114.593 main 0 0 _PP_______P___ -1 24.8569 114.498 2 998 0 0 25.2174 114.513 1 21 997 24.8465 114.769 6 9 245
1981195N11138 1981 49 WP MM MAURY 1981-07-21 00:00:00 TS 24.7667 114.200 998 tokyo main 0 0 _OO_______O___ -1 24.7000 114.100 2 998 0 0 0 25.0000 114.200 0 19 998 24.6000 114.300 6 8 230
1981195N11138 1981 49 WP MM MAURY 1981-07-21 03:00:00 TS 24.4379 113.883 main 0 0 _PP_______P___ -1 24.4998 113.693 2 998 0 0 24.4221 114.023 0 19 998 24.3916 113.933 6 9 220
1981195N11138 1981 49 WP MM MAURY 1981-07-21 06:00:00 TS 24.0970 113.578 998 tokyo main 0 0 _OO_______P___ -1 24.3000 113.300 2 998 0 0 0 23.8000 113.800 0 19 998 24.1910 113.634 6 8 227
1981195N11138 1981 49 WP MM MAURY 1981-07-21 09:00:00 TS 23.8616 113.212 main 0 0 _PP_______P___ -1 24.1573 112.908 2 998 0 0 23.4325 113.360 0 19 997 23.9950 113.367 6 8 239
1981195N11138 1981 49 WP MM MAURY 1981-07-21 12:00:00 TS 23.6667 112.800 998 tokyo main 0 0 _OO_______O___ -1 24.0000 112.500 2 998 0 0 0 23.2000 112.800 0 19 997 23.8000 113.100 6 9 243
1981195N11138 1981 49 WP MM MAURY 1981-07-21 15:00:00 TS 23.4524 112.334 main 0 0 _PP_______P___ -1 23.7651 112.035 2 998 0 0 23.0129 112.170 0 19 997 23.5793 112.798 6 9 244
1981195N11138 1981 49 WP MM MAURY 1981-07-21 18:00:00 MX 23.2540 111.896 998 tokyo main 0 0 _OO_______P___ -1 23.5000 111.600 6 998 0 0 0 22.9000 111.600 0 19 997 23.3619 112.487 6 8 242
1981195N11138 1981 49 WP MM MAURY 1981-07-21 21:00:00 MX 23.0777 111.554 main 0 0 _PP_______P___ -1 23.2348 111.270 6 999 0 0 22.8347 111.233 0 19 997 23.1636 112.158 6 7 241
1981195N11138 1981 49 WP MM MAURY 1981-07-22 00:00:00 MX 22.9333 111.267 1000 tokyo main 0 0 _OO_______O___ -1 23.0000 111.000 6 1000 0 0 0 22.8000 111.000 0 19 997 23.0000 111.800 6 6 244
1981195N11138 1981 49 WP MM MAURY 1981-07-22 03:00:00 MX 22.8202 110.992 main 0 0 _PP_______P___ -1 22.8274 110.743 6 999 0 0 22.7273 110.857 0 19 996 22.9058 111.376 6 5 250
1981195N11138 1981 49 WP MM MAURY 1981-07-22 06:00:00 MX 22.7477 110.709 998 tokyo main 0 0 _OO_______P___ -1 22.7000 110.500 6 998 0 0 0 22.7000 110.700 0 19 995 22.8432 110.928 6 6 263
1981195N11138 1981 49 WP MM MAURY 1981-07-22 09:00:00 MX 22.7504 110.382 main 0 0 _PP_______P___ -1 22.6000 110.250 6 998 0 0 22.8674 110.403 0 19 995 22.7839 110.492 6 6 266
1981195N11138 1981 49 WP MM MAURY 1981-07-22 12:00:00 MX 22.7000 110.033 998 tokyo main 0 0 _OO_______O___ -1 22.5000 110.000 6 998 0 0 0 22.9000 110.000 0 19 995 22.7000 110.100 6 7 245
1981195N11138 1981 49 WP MM MAURY 1981-07-22 15:00:00 MX 22.4376 109.653 main 0 0 _PP_______P___ -1 22.3500 109.750 6 998 0 0 22.4380 109.408 0 21 995 22.5247 109.799 6 8 229
1981195N11138 1981 49 WP MM MAURY 1981-07-22 18:00:00 MX 22.1423 109.349 998 tokyo main 0 0 _OO_______P___ -1 22.2000 109.500 6 998 0 0 0 21.9000 109.000 1 23 995 22.3268 109.547 6 6 218
1981195N11138 1981 49 WP MM MAURY 1981-07-22 21:00:00 MX 21.9718 109.254 main 0 0 _PP_______P___ -1 22.0775 109.250 6 998 0 0 21.6976 109.191 1 23 995 22.1405 109.321 6 3 207
1981195N11138 1981 49 WP MM MAURY 1981-07-23 00:00:00 MX 21.8667 109.200 998 tokyo main 0 0 _OO_______O___ -1 22.0000 109.000 6 998 0 0 0 21.6000 109.500 1 23 995 22.0000 109.100 6 4 229
1981195N11138 1981 49 WP MM MAURY 1981-07-23 03:00:00 MX 21.7322 108.963 main 0 0 _PP_______P___ -1 21.9401 108.690 6 997 0 0 21.3675 109.445 1 26 994 21.8889 108.753 6 5 250
1981195N11138 1981 49 WP MM MAURY 1981-07-23 06:00:00 MX 21.7117 108.741 996 tokyo main 0 0 _OO_______P___ -1 22.0000 108.500 6 996 0 0 0 21.3000 109.300 1 29 994 21.8351 108.422 6 3 303
1981195N11138 1981 49 WP MM MAURY 1981-07-23 09:00:00 MX 21.9220 108.653 main 0 0 _PP_______P___ -1 22.2774 108.560 6 996 0 0 21.6250 109.220 1 24 994 21.8636 108.179 6 5 356
1981195N11138 1981 49 WP MM MAURY 1981-07-23 12:00:00 MX 22.2000 108.691 996 tokyo main 0 0 _OO_______O___ -1 22.6000 108.800 6 996 0 0 0 22.1000 109.200 0 19 995 22.0000 108.100 6 6 15
1981195N11138 1981 49 WP MM MAURY 1981-07-23 15:00:00 MX 22.4549 108.814 main 0 0 _PP_______P___ -1 22.7952 109.130 6 997 0 0 22.4798 109.233 0 19 995 22.2598 108.238 6 7 34
1981195N11138 1981 49 WP MM MAURY 1981-07-23 18:00:00 MX 22.7447 109.096 998 tokyo main 0 0 _OO_______P___ -1 22.9000 109.500 6 998 0 0 0 22.8000 109.400 0 19 995 22.6191 108.556 6 9 51
1981195N11138 1981 49 WP MM MAURY 1981-07-23 21:00:00 TS 22.9999 109.537 main 0 0 __P_______P___ -1 6 0 0 22.9779 109.807 0 19 995 23.0438 108.996 6 10 60
1981195N11138 1981 49 WP MM MAURY 1981-07-24 00:00:00 TS 23.2600 110.060 main 0 0 __O_______O___ -1 23.2000 110.200 0 19 995 23.5000 109.500 6 9 45
1981195N11138 1981 49 WP MM MAURY 1981-07-24 03:00:00 TS 23.6396 110.244 main 0 0 __P___________ -1 23.6396 110.244 0 19 995 6 10 13
1981195N11138 1981 49 WP MM MAURY 1981-07-24 06:00:00 TS 24.2000 110.300 main 0 0 __O___________ -1 24.2000 110.300 0 19 996 6 13 18
1981195N11138 1981 49 WP MM MAURY 1981-07-24 09:00:00 TS 24.8299 110.659 main 0 0 __P___________ -1 24.8299 110.659 0 19 996 6 15 34
1981195N11138 1981 49 WP MM MAURY 1981-07-24 12:00:00 TS 25.4000 111.200 main 0 0 __O___________ -1 25.4000 111.200 0 19 997 15 54
1981195N11138 1981 49 WP MM MAURY 1981-07-24 15:00:00 TS 25.6935 111.955 main 0 0 __P___________ -1 25.6935 111.955 0 19 997 13 63
1981195N11138 1981 49 WP MM MAURY 1981-07-24 18:00:00 TS 26.0000 112.500 main 0 0 __O___________ -1 26.0000 112.500 0 19 998 10 27
1981195N11138 1981 49 WP MM MAURY 1981-07-24 21:00:00 TS 26.5649 112.442 main 0 0 __P___________ -1 26.5649 112.442 0 19 999 14 341
1981195N11138 1981 49 WP MM MAURY 1981-07-25 00:00:00 TS 27.3000 112.000 main 0 __O___________ -1 27.3000 112.000 0 19 1000 17 332

Digital Typhoon Data and Search

About IBTrACS Database

This database is a web-friendly format of International Best Track Archive for Climate Stewardship (IBTrACS), a global best track data archive curated by NOAA dating back to 1842.

Updated: 2021-11-26